sensor_id;sensor_type;location;lat;lon;timestamp;temperature;humidity
47773;DHT22;33534;51.028;13.716;2023-07-13T05:55:13;28.80;46.20
47773;DHT22;33534;51.028;13.716;2023-07-13T05:57:39;29.80;43.00
47773;DHT22;33534;51.028;13.716;2023-07-13T06:00:10;30.40;41.50
47773;DHT22;33534;51.028;13.716;2023-07-13T06:02:39;30.00;41.90
47773;DHT22;33534;51.028;13.716;2023-07-13T06:05:10;30.00;41.10
47773;DHT22;33534;51.028;13.716;2023-07-13T06:07:36;30.70;40.90
47773;DHT22;33534;51.028;13.716;2023-07-13T06:10:04;30.70;40.60
47773;DHT22;33534;51.028;13.716;2023-07-13T06:12:33;30.90;40.30
47773;DHT22;33534;51.028;13.716;2023-07-13T06:14:59;31.20;39.60
47773;DHT22;33534;51.028;13.716;2023-07-13T06:17:25;31.80;39.30
47773;DHT22;33534;51.028;13.716;2023-07-13T06:19:54;31.60;38.70
47773;DHT22;33534;51.028;13.716;2023-07-13T06:32:14;35.10;33.30
47773;DHT22;33534;51.028;13.716;2023-07-13T06:34:42;35.20;33.00
47773;DHT22;33534;51.028;13.716;2023-07-13T06:37:11;35.00;33.50
47773;DHT22;33534;51.028;13.716;2023-07-13T06:42:03;33.40;35.50
47773;DHT22;33534;51.028;13.716;2023-07-13T06:44:28;33.70;34.90
47773;DHT22;33534;51.028;13.716;2023-07-13T06:46:54;33.60;36.00
47773;DHT22;33534;51.028;13.716;2023-07-13T06:49:20;34.90;34.20
47773;DHT22;33534;51.028;13.716;2023-07-13T06:51:45;36.20;31.80
47773;DHT22;33534;51.028;13.716;2023-07-13T06:56:38;36.80;30.10
47773;DHT22;33534;51.028;13.716;2023-07-13T06:59:04;36.80;30.20
47773;DHT22;33534;51.028;13.716;2023-07-13T07:01:32;37.30;29.90
47773;DHT22;33534;51.028;13.716;2023-07-13T07:04:00;36.80;28.30
47773;DHT22;33534;51.028;13.716;2023-07-13T07:21:13;32.50;31.10
47773;DHT22;33534;51.028;13.716;2023-07-13T07:23:41;32.00;31.90
47773;DHT22;33534;51.028;13.716;2023-07-13T07:26:07;31.90;33.70
47773;DHT22;33534;51.028;13.716;2023-07-13T07:28:39;33.10;32.00
47773;DHT22;33534;51.028;13.716;2023-07-13T07:31:05;34.40;30.90
47773;DHT22;33534;51.028;13.716;2023-07-13T07:36:00;36.30;28.40
47773;DHT22;33534;51.028;13.716;2023-07-13T07:38:26;36.50;28.10
47773;DHT22;33534;51.028;13.716;2023-07-13T07:40:52;37.70;27.00
47773;DHT22;33534;51.028;13.716;2023-07-13T08:05:25;38.30;24.50
47773;DHT22;33534;51.028;13.716;2023-07-13T08:10:19;36.30;27.10
47773;DHT22;33534;51.028;13.716;2023-07-13T08:12:48;35.40;27.50
47773;DHT22;33534;51.028;13.716;2023-07-13T08:15:15;35.40;27.90
47773;DHT22;33534;51.028;13.716;2023-07-13T08:20:09;35.30;27.60
47773;DHT22;33534;51.028;13.716;2023-07-13T08:22:35;36.20;27.10
47773;DHT22;33534;51.028;13.716;2023-07-13T08:25:01;35.90;27.20
47773;DHT22;33534;51.028;13.716;2023-07-13T08:27:28;35.40;27.90
47773;DHT22;33534;51.028;13.716;2023-07-13T08:29:54;35.90;28.50
47773;DHT22;33534;51.028;13.716;2023-07-13T08:32:21;36.30;26.50
47773;DHT22;33534;51.028;13.716;2023-07-13T08:34:47;36.60;25.20
47773;DHT22;33534;51.028;13.716;2023-07-13T08:37:13;36.40;25.70
47773;DHT22;33534;51.028;13.716;2023-07-13T08:39:39;36.00;25.40
47773;DHT22;33534;51.028;13.716;2023-07-13T08:45:19;35.90;27.90
47773;DHT22;33534;51.028;13.716;2023-07-13T08:47:48;35.60;27.80
47773;DHT22;33534;51.028;13.716;2023-07-13T08:50:18;35.90;28.00
47773;DHT22;33534;51.028;13.716;2023-07-13T08:52:45;36.20;26.90
47773;DHT22;33534;51.028;13.716;2023-07-13T08:55:18;36.90;26.30
47773;DHT22;33534;51.028;13.716;2023-07-13T08:57:50;36.90;25.30
47773;DHT22;33534;51.028;13.716;2023-07-13T09:00:18;36.40;26.90
47773;DHT22;33534;51.028;13.716;2023-07-13T09:02:56;35.40;28.20
47773;DHT22;33534;51.028;13.716;2023-07-13T09:05:43;34.30;29.10
47773;DHT22;33534;51.028;13.716;2023-07-13T09:16:46;33.90;29.30
47773;DHT22;33534;51.028;13.716;2023-07-13T09:19:23;35.20;27.20
47773;DHT22;33534;51.028;13.716;2023-07-13T09:21:52;35.50;26.30
47773;DHT22;33534;51.028;13.716;2023-07-13T09:25:00;34.80;28.10
47773;DHT22;33534;51.028;13.716;2023-07-13T09:27:39;35.60;26.60
47773;DHT22;33534;51.028;13.716;2023-07-13T09:32:49;34.90;28.10
47773;DHT22;33534;51.028;13.716;2023-07-13T09:35:20;34.10;28.80
47773;DHT22;33534;51.028;13.716;2023-07-13T09:42:53;32.70;30.80
47773;DHT22;33534;51.028;13.716;2023-07-13T09:45:29;32.90;30.40
47773;DHT22;33534;51.028;13.716;2023-07-13T09:48:00;33.30;29.90
47773;DHT22;33534;51.028;13.716;2023-07-13T09:50:29;32.60;30.70
47773;DHT22;33534;51.028;13.716;2023-07-13T09:52:55;31.80;31.90
47773;DHT22;33534;51.028;13.716;2023-07-13T09:55:31;31.70;32.10
47773;DHT22;33534;51.028;13.716;2023-07-13T09:57:57;31.80;33.30
47773;DHT22;33534;51.028;13.716;2023-07-13T10:00:29;32.40;32.50
47773;DHT22;33534;51.028;13.716;2023-07-13T10:05:41;33.20;29.80
47773;DHT22;33534;51.028;13.716;2023-07-13T10:08:20;33.20;30.60
47773;DHT22;33534;51.028;13.716;2023-07-13T10:10:52;32.60;29.90
47773;DHT22;33534;51.028;13.716;2023-07-13T10:15:56;31.80;31.70
47773;DHT22;33534;51.028;13.716;2023-07-13T10:18:23;31.30;33.60
47773;DHT22;33534;51.028;13.716;2023-07-13T10:21:50;31.60;33.20
47773;DHT22;33534;51.028;13.716;2023-07-13T10:23:39;31.50;33.00
47773;DHT22;33534;51.028;13.716;2023-07-13T10:26:12;31.80;33.10
47773;DHT22;33534;51.028;13.716;2023-07-13T10:28:40;31.60;32.30
47773;DHT22;33534;51.028;13.716;2023-07-13T10:31:13;31.60;32.90
47773;DHT22;33534;51.028;13.716;2023-07-13T10:33:40;31.50;31.50
47773;DHT22;33534;51.028;13.716;2023-07-13T10:36:37;31.50;32.70
47773;DHT22;33534;51.028;13.716;2023-07-13T10:39:05;31.50;32.70
47773;DHT22;33534;51.028;13.716;2023-07-13T10:41:36;31.50;31.50
47773;DHT22;33534;51.028;13.716;2023-07-13T10:44:05;30.80;33.40
47773;DHT22;33534;51.028;13.716;2023-07-13T10:46:35;30.90;34.10
47773;DHT22;33534;51.028;13.716;2023-07-13T10:49:05;31.20;33.30
47773;DHT22;33534;51.028;13.716;2023-07-13T10:51:31;31.20;31.60
47773;DHT22;33534;51.028;13.716;2023-07-13T10:54:10;31.00;32.70
47773;DHT22;33534;51.028;13.716;2023-07-13T10:56:38;31.10;33.20
47773;DHT22;33534;51.028;13.716;2023-07-13T11:01:58;31.20;32.50
47773;DHT22;33534;51.028;13.716;2023-07-13T11:04:26;31.20;32.70
47773;DHT22;33534;51.028;13.716;2023-07-13T11:06:59;31.00;31.60
47773;DHT22;33534;51.028;13.716;2023-07-13T11:09:34;30.70;32.20
47773;DHT22;33534;51.028;13.716;2023-07-13T11:12:10;30.50;32.30
